SBI7520 UTAA-HELX
Flight info
| Callsign | SBI7520 |
|---|---|
| Flight time | N/A |
| Altitude | 36000 |
| Route | UTAA N0448F360 RIKOP L720 BRD B451 DHN B411 ASH V14 TBK Y333 GEPAG Q510 PASAM N316 HGD R650 ASRAB HELX |
| Aircraft | B738/M-SDGIWZ/S |
Departure
| Time | N/A |
|---|---|
| Airport | Ashgabat International Airport (UTAA) |
Arrival
| Time | 2026-04-15 07:53 |
|---|---|
| Airport | Luxor International Airport (HELX) |
| Time | Latitude | Longitude | Altitude | Speed | Heading |
|---|---|---|---|---|---|
| 2026-04-15 07:27 | 27.14704 | 33.78645 | 34256 ft | 380 kts | 225° |
| 2026-04-15 07:27 | 27.10322 | 33.75869 | 33360 ft | 394 kts | 211° |
| 2026-04-15 07:27 | 27.09496 | 33.75477 | 33200 ft | 392 kts | 211° |
| 2026-04-15 07:28 | 27.03780 | 33.72616 | 32081 ft | 380 kts | 212° |
| 2026-04-15 07:28 | 26.98113 | 33.69743 | 30967 ft | 376 kts | 211° |
| 2026-04-15 07:29 | 26.92501 | 33.66913 | 29851 ft | 373 kts | 210° |
| 2026-04-15 07:30 | 26.86668 | 33.63982 | 28691 ft | 363 kts | 210° |
| 2026-04-15 07:30 | 26.81203 | 33.61236 | 27603 ft | 363 kts | 210° |
| 2026-04-15 07:31 | 26.75000 | 33.58129 | 26351 ft | 353 kts | 209° |
| 2026-04-15 07:31 | 26.74260 | 33.57758 | 26202 ft | 351 kts | 209° |
| 2026-04-15 07:32 | 26.66833 | 33.54040 | 24708 ft | 340 kts | 209° |
| 2026-04-15 07:32 | 26.62064 | 33.51654 | 23741 ft | 340 kts | 209° |
| 2026-04-15 07:33 | 26.59930 | 33.50589 | 23308 ft | 336 kts | 208° |
| 2026-04-15 07:33 | 26.57828 | 33.49539 | 22883 ft | 332 kts | 208° |
| 2026-04-15 07:33 | 26.55742 | 33.48497 | 22460 ft | 328 kts | 208° |
| 2026-04-15 07:33 | 26.53675 | 33.47466 | 22041 ft | 325 kts | 208° |
| 2026-04-15 07:34 | 26.51593 | 33.46425 | 21623 ft | 330 kts | 208° |
| 2026-04-15 07:34 | 26.49527 | 33.45394 | 21197 ft | 328 kts | 208° |
| 2026-04-15 07:34 | 26.47453 | 33.44362 | 20774 ft | 324 kts | 208° |
| 2026-04-15 07:34 | 26.45429 | 33.43354 | 20361 ft | 320 kts | 208° |
| 2026-04-15 07:35 | 26.43394 | 33.42340 | 19827 ft | 320 kts | 208° |
| 2026-04-15 07:35 | 26.41381 | 33.41339 | 19382 ft | 317 kts | 208° |
| 2026-04-15 07:35 | 26.39384 | 33.40347 | 18970 ft | 314 kts | 208° |
| 2026-04-15 07:35 | 26.37405 | 33.39364 | 18627 ft | 308 kts | 207° |
| 2026-04-15 07:36 | 26.35479 | 33.38407 | 18266 ft | 308 kts | 207° |
| 2026-04-15 07:36 | 26.33504 | 33.37423 | 17866 ft | 311 kts | 207° |
| 2026-04-15 07:36 | 26.31537 | 33.36448 | 17463 ft | 307 kts | 207° |
| 2026-04-15 07:36 | 26.29605 | 33.35490 | 17069 ft | 303 kts | 207° |
| 2026-04-15 07:37 | 26.27709 | 33.34550 | 16682 ft | 300 kts | 207° |
| 2026-04-15 07:37 | 26.25821 | 33.33613 | 16298 ft | 300 kts | 207° |
| 2026-04-15 07:37 | 26.23893 | 33.32656 | 15904 ft | 304 kts | 206° |
| 2026-04-15 07:37 | 26.21981 | 33.31710 | 15508 ft | 300 kts | 206° |
| 2026-04-15 07:38 | 26.20099 | 33.30778 | 15121 ft | 297 kts | 206° |
| 2026-04-15 07:38 | 26.18232 | 33.29853 | 14738 ft | 294 kts | 206° |
| 2026-04-15 07:38 | 26.16361 | 33.28927 | 14354 ft | 290 kts | 206° |
| 2026-04-15 07:38 | 26.14523 | 33.28017 | 13982 ft | 294 kts | 206° |
| 2026-04-15 07:39 | 26.12670 | 33.27100 | 13593 ft | 294 kts | 206° |
| 2026-04-15 07:39 | 26.10805 | 33.26178 | 13208 ft | 291 kts | 206° |
| 2026-04-15 07:39 | 26.08991 | 33.25282 | 12834 ft | 288 kts | 206° |
| 2026-04-15 07:39 | 26.07164 | 33.24379 | 12456 ft | 285 kts | 206° |
| 2026-04-15 07:40 | 26.05378 | 33.23497 | 12088 ft | 282 kts | 206° |
| 2026-04-15 07:40 | 26.03572 | 33.22604 | 11720 ft | 288 kts | 206° |
| 2026-04-15 07:40 | 26.01738 | 33.21699 | 11332 ft | 286 kts | 206° |
| 2026-04-15 07:40 | 25.99928 | 33.20806 | 10957 ft | 283 kts | 206° |
| 2026-04-15 07:41 | 25.98159 | 33.19934 | 10590 ft | 280 kts | 206° |
| 2026-04-15 07:41 | 25.96395 | 33.19064 | 10255 ft | 281 kts | 206° |
| 2026-04-15 07:41 | 25.94628 | 33.18193 | 10076 ft | 271 kts | 206° |
| 2026-04-15 07:41 | 25.92943 | 33.17364 | 9890 ft | 263 kts | 206° |
| 2026-04-15 07:42 | 25.91278 | 33.16542 | 9563 ft | 261 kts | 206° |
| 2026-04-15 07:42 | 25.89628 | 33.15730 | 9249 ft | 258 kts | 206° |
| 2026-04-15 07:42 | 25.88002 | 33.14929 | 8942 ft | 255 kts | 206° |
| 2026-04-15 07:42 | 25.86398 | 33.14140 | 8640 ft | 254 kts | 206° |
| 2026-04-15 07:43 | 25.84752 | 33.13329 | 8332 ft | 259 kts | 206° |
| 2026-04-15 07:43 | 25.83136 | 33.12534 | 8022 ft | 257 kts | 206° |
| 2026-04-15 07:43 | 25.81499 | 33.11723 | 7712 ft | 254 kts | 209° |
| 2026-04-15 07:43 | 25.80111 | 33.10606 | 7414 ft | 247 kts | 232° |
| 2026-04-15 07:44 | 25.79301 | 33.08928 | 7140 ft | 245 kts | 255° |
| 2026-04-15 07:44 | 25.79115 | 33.07112 | 6828 ft | 235 kts | 272° |
| 2026-04-15 07:44 | 25.79163 | 33.05347 | 6543 ft | 225 kts | 272° |
| 2026-04-15 07:44 | 25.79188 | 33.03647 | 6278 ft | 216 kts | 271° |
| 2026-04-15 07:45 | 25.79216 | 33.02016 | 6028 ft | 207 kts | 272° |
| 2026-04-15 07:45 | 25.79244 | 33.00444 | 5783 ft | 199 kts | 272° |
| 2026-04-15 07:45 | 25.79271 | 32.98947 | 5547 ft | 194 kts | 272° |
| 2026-04-15 07:45 | 25.79298 | 32.97453 | 5312 ft | 194 kts | 272° |
| 2026-04-15 07:46 | 25.79325 | 32.95951 | 5074 ft | 194 kts | 272° |
| 2026-04-15 07:46 | 25.79351 | 32.94470 | 4915 ft | 192 kts | 272° |
| 2026-04-15 07:46 | 25.79378 | 32.92978 | 4854 ft | 193 kts | 272° |
| 2026-04-15 07:46 | 25.79427 | 32.91491 | 4744 ft | 196 kts | 279° |
| 2026-04-15 07:47 | 25.79864 | 32.90078 | 4428 ft | 192 kts | 295° |
| 2026-04-15 07:47 | 25.80394 | 32.88765 | 4160 ft | 181 kts | 294° |
| 2026-04-15 07:47 | 25.80881 | 32.87497 | 3964 ft | 179 kts | 294° |
| 2026-04-15 07:47 | 25.81374 | 32.86209 | 3764 ft | 181 kts | 294° |
| 2026-04-15 07:48 | 25.81862 | 32.84929 | 3571 ft | 180 kts | 294° |
| 2026-04-15 07:48 | 25.82333 | 32.83691 | 3414 ft | 164 kts | 294° |
| 2026-04-15 07:48 | 25.82770 | 32.82544 | 3224 ft | 158 kts | 294° |
| 2026-04-15 07:48 | 25.83196 | 32.81422 | 3058 ft | 158 kts | 294° |
| 2026-04-15 07:49 | 25.83619 | 32.80311 | 2989 ft | 155 kts | 294° |
| 2026-04-15 07:49 | 25.83935 | 32.79176 | 2974 ft | 158 kts | 271° |
| 2026-04-15 07:49 | 25.83469 | 32.78102 | 2940 ft | 162 kts | 216° |
| 2026-04-15 07:49 | 25.82388 | 32.77760 | 2848 ft | 164 kts | 186° |
| 2026-04-15 07:50 | 25.81306 | 32.77434 | 2676 ft | 161 kts | 212° |
| 2026-04-15 07:50 | 25.80320 | 32.76831 | 2548 ft | 166 kts | 206° |
| 2026-04-15 07:50 | 25.79264 | 32.76297 | 2370 ft | 167 kts | 205° |
| 2026-04-15 07:50 | 25.78185 | 32.75787 | 2212 ft | 168 kts | 204° |
| 2026-04-15 07:51 | 25.77122 | 32.75291 | 2067 ft | 167 kts | 204° |
| 2026-04-15 07:51 | 25.76046 | 32.74791 | 1942 ft | 167 kts | 204° |
| 2026-04-15 07:51 | 25.74970 | 32.74292 | 1720 ft | 167 kts | 204° |
| 2026-04-15 07:51 | 25.73899 | 32.73796 | 1502 ft | 166 kts | 204° |
| 2026-04-15 07:52 | 25.72836 | 32.73303 | 1280 ft | 166 kts | 204° |
| 2026-04-15 07:52 | 25.71772 | 32.72810 | 1054 ft | 166 kts | 203° |
| 2026-04-15 07:52 | 25.70721 | 32.72343 | 805 ft | 160 kts | 202° |
| 2026-04-15 07:52 | 25.69701 | 32.71859 | 609 ft | 159 kts | 204° |
| 2026-04-15 07:53 | 25.68691 | 32.71388 | 390 ft | 161 kts | 203° |
| 2026-04-15 07:53 | 25.67678 | 32.70916 | 303 ft | 148 kts | 203° |
| 2026-04-15 07:53 | 25.66941 | 32.70571 | 302 ft | 80 kts | 203° |
| 2026-04-15 07:53 | 25.66583 | 32.70406 | 302 ft | 33 kts | 204° |
| 2026-04-15 07:54 | 25.66476 | 32.70324 | 302 ft | 15 kts | 263° |
| 2026-04-15 07:54 | 25.66511 | 32.70227 | 302 ft | 12 kts | 319° |
| 2026-04-15 07:54 | 25.66598 | 32.70236 | 302 ft | 18 kts | 21° |
| 2026-04-15 07:54 | 25.66763 | 32.70312 | 302 ft | 32 kts | 22° |
| 2026-04-15 07:55 | 25.66954 | 32.70394 | 302 ft | 18 kts | 358° |
| 2026-04-15 07:55 | 25.67025 | 32.70301 | 302 ft | 13 kts | 307° |
| 2026-04-15 07:55 | 25.67148 | 32.70328 | 302 ft | 5 kts | 335° |
| 2026-04-15 07:56 | 25.67163 | 32.70302 | 302 ft | 3 kts | 295° |
| 2026-04-15 07:56 | 25.67169 | 32.70289 | 302 ft | 0 kts | 295° |